Time;durP1;ratioP1;P1;durP2;ratioP2;P2;SDS_P1;SDS_P2;PMS_P1;PMS_P2;Temp;Humidity;BMP_temperature;BMP_pressure;BME280_temperature;BME280_humidity;BME280_pressure;Samples;Min_cycle;Max_cycle;Signal;HPM_P1;HPM_P2
2023/01/16 00:00:43;;;;;;;7.13;1.95;;;;;;;3.33;100.00;99322.72;5019202;28;20172;-47
2023/01/16 00:03:09;;;;;;;3.97;2.08;;;;;;;3.39;100.00;99317.19;5015403;28;20180;-46
2023/01/16 00:05:34;;;;;;;7.10;2.65;;;;;;;3.42;100.00;99315.31;5020578;28;20205;-45
2023/01/16 00:08:00;;;;;;;13.80;2.78;;;;;;;3.44;100.00;99321.44;5020267;28;20189;-45
2023/01/16 00:10:25;;;;;;;7.90;2.63;;;;;;;3.49;100.00;99308.91;5026135;28;20278;-47
2023/01/16 00:12:51;;;;;;;9.63;3.03;;;;;;;3.45;100.00;99304.63;5025123;28;20199;-46
2023/01/16 00:15:16;;;;;;;10.45;3.72;;;;;;;3.48;100.00;99315.13;5022204;28;20244;-45
2023/01/16 00:17:42;;;;;;;7.03;3.22;;;;;;;3.51;100.00;99312.38;5020266;28;20177;-46
2023/01/16 00:20:08;;;;;;;12.93;3.80;;;;;;;3.40;100.00;99303.06;5025338;28;20643;-46
2023/01/16 00:22:33;;;;;;;12.65;3.83;;;;;;;3.47;100.00;99310.72;5026681;28;20198;-45
2023/01/16 00:24:59;;;;;;;10.68;3.92;;;;;;;3.52;100.00;99321.19;5022429;28;20208;-45
2023/01/16 00:27:24;;;;;;;16.00;4.25;;;;;;;3.56;100.00;99314.84;5018799;28;20184;-47
2023/01/16 00:29:50;;;;;;;12.38;5.45;;;;;;;3.56;100.00;99314.00;5022818;28;20201;-45
2023/01/16 00:32:15;;;;;;;14.80;4.07;;;;;;;3.57;100.00;99321.91;5021469;28;20220;-45
2023/01/16 00:34:41;;;;;;;14.35;4.50;;;;;;;3.52;100.00;99315.91;5022344;28;20188;-46
2023/01/16 00:37:06;;;;;;;8.82;4.10;;;;;;;3.42;100.00;99315.31;5026468;28;20267;-46
2023/01/16 00:39:32;;;;;;;10.18;4.63;;;;;;;3.40;100.00;99303.06;5024182;28;20176;-45
2023/01/16 00:41:58;;;;;;;13.13;5.53;;;;;;;3.36;100.00;99317.31;5017869;28;20189;-46
2023/01/16 00:44:24;;;;;;;12.68;5.57;;;;;;;3.35;100.00;99305.00;5021575;28;20184;-46
2023/01/16 00:46:49;;;;;;;8.32;5.60;;;;;;;3.35;100.00;99320.91;5024973;28;20219;-48
2023/01/16 00:49:15;;;;;;;11.82;5.30;;;;;;;3.34;100.00;99305.91;5017242;28;20555;-47
2023/01/16 00:51:40;;;;;;;12.90;5.55;;;;;;;3.35;100.00;99323.53;5026329;28;20200;-47
2023/01/16 00:54:06;;;;;;;10.70;6.03;;;;;;;3.31;100.00;99314.81;5018901;28;20771;-45
2023/01/16 00:56:31;;;;;;;14.50;5.50;;;;;;;3.27;100.00;99319.34;5016742;28;20616;-46
2023/01/16 00:58:57;;;;;;;9.57;5.47;;;;;;;3.24;100.00;99332.69;5021853;28;20184;-44
2023/01/16 01:01:22;;;;;;;12.70;5.32;;;;;;;3.22;100.00;99337.16;5020996;28;20207;-46
2023/01/16 01:03:48;;;;;;;8.57;5.35;;;;;;;3.26;100.00;99336.16;5019997;28;20216;-44
2023/01/16 01:06:13;;;;;;;11.55;4.65;;;;;;;3.23;100.00;99333.59;5023653;28;20644;-46
2023/01/16 01:08:39;;;;;;;11.68;4.18;;;;;;;3.24;100.00;99337.13;5027363;28;20164;-47
2023/01/16 01:11:09;;;;;;;10.35;4.53;;;;;;;3.26;100.00;99333.50;5021843;28;20207;-47
2023/01/16 01:13:35;;;;;;;5.57;4.20;;;;;;;3.27;100.00;99337.00;5016464;28;20189;-46
2023/01/16 01:16:01;;;;;;;6.70;4.10;;;;;;;3.32;100.00;99342.16;5021942;28;20200;-44
2023/01/16 01:18:26;;;;;;;10.65;4.30;;;;;;;3.30;100.00;99339.53;5025362;28;20193;-45
2023/01/16 01:20:51;;;;;;;7.13;4.43;;;;;;;3.28;100.00;99333.47;5022227;28;20580;-47
2023/01/16 01:23:17;;;;;;;8.13;4.57;;;;;;;3.28;100.00;99336.97;5024950;28;20628;-44
2023/01/16 01:25:43;;;;;;;7.90;4.32;;;;;;;3.27;100.00;99332.56;5024061;28;20208;-46
2023/01/16 01:28:08;;;;;;;6.85;4.25;;;;;;;3.28;100.00;99326.38;5018523;28;20652;-46
2023/01/16 01:30:34;;;;;;;9.75;4.40;;;;;;;3.30;100.00;99318.38;5019850;28;20544;-46
2023/01/16 01:32:59;;;;;;;11.20;4.80;;;;;;;3.35;100.00;99321.75;5022657;28;20192;-47
2023/01/16 01:35:25;;;;;;;6.20;4.65;;;;;;;3.26;100.00;99325.56;5029133;28;20641;-47
2023/01/16 01:37:50;;;;;;;11.45;4.95;;;;;;;3.23;100.00;99323.00;5023256;28;20191;-49
2023/01/16 01:40:16;;;;;;;7.72;5.20;;;;;;;3.21;100.00;99329.25;5021634;28;20164;-46
2023/01/16 01:42:42;;;;;;;8.50;4.95;;;;;;;3.20;100.00;99327.53;5020255;28;20208;-48
2023/01/16 01:45:21;;;;;;;8.23;4.97;;;;;;;3.17;100.00;99322.34;5025002;28;20204;-46
2023/01/16 01:47:54;;;;;;;10.23;5.75;;;;;;;3.08;100.00;99312.91;5018761;28;20194;-47
2023/01/16 01:50:38;;;;;;;12.52;5.13;;;;;;;3.11;100.00;99317.25;5019639;28;20714;-47
2023/01/16 01:53:11;;;;;;;8.00;5.25;;;;;;;3.10;100.00;99308.44;5021948;28;20607;-49
2023/01/16 01:55:40;;;;;;;6.90;4.55;;;;;;;3.06;100.00;99317.38;5015425;28;20304;-47
2023/01/16 01:58:06;;;;;;;8.43;5.95;;;;;;;3.09;100.00;99312.88;5021820;28;20181;-47
2023/01/16 02:00:32;;;;;;;9.18;5.72;;;;;;;3.07;100.00;99313.84;5017765;28;20527;-48
2023/01/16 02:03:00;;;;;;;15.15;6.25;;;;;;;3.06;100.00;99309.44;5017126;28;20211;-47
2023/01/16 02:05:30;;;;;;;9.55;5.80;;;;;;;3.11;100.00;99306.69;5019492;28;20219;-48
2023/01/16 02:07:57;;;;;;;11.45;5.88;;;;;;;3.20;100.00;99304.59;5019842;28;20180;-47
2023/01/16 02:10:35;;;;;;;8.48;6.10;;;;;;;3.10;100.00;99297.84;5021235;28;20219;-48
2023/01/16 02:13:01;;;;;;;8.02;6.35;;;;;;;3.09;100.00;99298.78;5026572;28;20168;-48
2023/01/16 02:15:27;;;;;;;7.45;6.03;;;;;;;3.15;100.00;99301.25;5017519;28;20207;-47
2023/01/16 02:20:55;;;;;;;8.90;6.15;;;;;;;3.19;100.00;99294.94;5020675;28;20182;-47
2023/01/16 02:23:58;;;;;;;9.48;6.32;;;;;;;3.18;100.00;99303.78;5026063;28;20614;-46
2023/01/16 02:27:03;;;;;;;9.90;5.88;;;;;;;3.14;100.00;99307.44;5030385;28;20195;-47
2023/01/16 02:29:47;;;;;;;7.82;6.05;;;;;;;3.15;100.00;99298.59;5016317;28;20589;-46
2023/01/16 02:32:21;;;;;;;7.00;6.30;;;;;;;3.17;100.00;99302.06;5021078;28;20219;-47
2023/01/16 02:35:09;;;;;;;10.57;6.30;;;;;;;3.30;100.00;99286.59;5019102;28;20683;-47
2023/01/16 02:37:49;;;;;;;9.52;5.97;;;;;;;3.27;100.00;99292.00;5017798;28;20599;-48
2023/01/16 02:40:15;;;;;;;8.63;5.72;;;;;;;3.27;100.00;99292.00;5027368;28;20191;-46
2023/01/16 02:42:52;;;;;;;9.77;6.05;;;;;;;3.27;100.00;99282.28;5024278;28;20188;-46
2023/01/16 02:45:20;;;;;;;7.25;6.18;;;;;;;3.29;100.00;99274.31;5020551;28;20224;-47
2023/01/16 02:47:58;;;;;;;10.57;6.32;;;;;;;3.40;100.00;99272.16;5025716;28;20254;-48
2023/01/16 02:50:27;;;;;;;7.63;6.63;;;;;;;3.35;100.00;99262.66;5020736;28;20635;-46
2023/01/16 02:53:19;;;;;;;9.98;6.20;;;;;;;3.35;100.00;99257.38;5017563;28;20192;-46
2023/01/16 02:55:54;;;;;;;6.68;5.90;;;;;;;3.33;100.00;99248.59;5019092;28;20303;-47
2023/01/16 02:58:21;;;;;;;9.27;6.20;;;;;;;3.34;100.00;99258.25;5022236;28;20274;-47
2023/01/16 03:00:58;;;;;;;8.95;5.57;;;;;;;3.34;100.00;99263.56;5018465;28;20707;-46
2023/01/16 03:03:41;;;;;;;10.43;5.93;;;;;;;3.36;100.00;99265.22;5025069;28;20352;-47
2023/01/16 03:06:19;;;;;;;6.97;5.47;;;;;;;3.38;100.00;99270.47;5018367;28;20246;-46
2023/01/16 03:08:45;;;;;;;8.80;5.72;;;;;;;3.36;100.00;99259.94;5011643;28;20655;-47
2023/01/16 03:11:22;;;;;;;8.23;5.68;;;;;;;3.33;100.00;99260.06;5020997;28;20215;-46
2023/01/16 03:14:16;;;;;;;8.77;6.50;;;;;;;3.32;100.00;99253.00;5017226;28;20258;-47
2023/01/16 03:17:04;;;;;;;8.45;6.00;;;;;;;3.34;100.00;99256.47;5015143;28;20255;-46
2023/01/16 03:19:48;;;;;;;10.07;7.30;;;;;;;3.30;100.00;99261.03;5018529;28;20207;-48
2023/01/16 03:22:49;;;;;;;8.85;6.78;;;;;;;3.29;100.00;99258.41;5018815;28;20192;-48
2023/01/16 03:25:23;;;;;;;8.55;6.47;;;;;;;3.25;100.00;99247.06;4962727;28;20235;-48
2023/01/16 03:28:07;;;;;;;9.50;6.82;;;;;;;3.25;100.00;99240.91;5012989;28;20199;-48
2023/01/16 03:30:36;;;;;;;8.07;6.60;;;;;;;3.20;100.00;99234.91;5025015;28;20204;-47
2023/01/16 03:33:08;;;;;;;10.35;6.90;;;;;;;3.18;100.00;99223.53;5018581;28;20267;-48
2023/01/16 03:35:37;;;;;;;15.75;7.18;;;;;;;3.20;100.00;99227.84;5023421;28;20645;-47
2023/01/16 03:38:10;;;;;;;11.07;7.43;;;;;;;3.23;100.00;99226.88;5018659;28;20215;-48
2023/01/16 03:40:42;;;;;;;10.82;7.07;;;;;;;3.18;100.00;99224.38;5017876;28;20627;-47
2023/01/16 03:43:21;;;;;;;10.82;8.00;;;;;;;3.20;100.00;99229.63;5016705;28;20577;-48
2023/01/16 03:45:54;;;;;;;7.82;6.55;;;;;;;3.14;100.00;99238.63;5017225;28;20726;-46
2023/01/16 03:48:28;;;;;;;13.20;6.90;;;;;;;3.21;100.00;99234.84;5016410;28;20563;-46
2023/01/16 03:51:00;;;;;;;10.75;6.47;;;;;;;3.17;100.00;99229.72;5020136;28;20197;-46
2023/01/16 03:53:31;;;;;;;8.10;6.40;;;;;;;3.19;100.00;99231.41;5016671;28;20210;-46
2023/01/16 03:56:10;;;;;;;8.75;6.45;;;;;;;3.19;100.00;99233.19;5010984;28;20223;-46
2023/01/16 03:58:39;;;;;;;7.72;6.10;;;;;;;3.17;100.00;99227.06;5020977;28;20186;-48
2023/01/16 04:01:20;;;;;;;6.40;5.75;;;;;;;3.19;100.00;99226.13;5013925;28;20259;-48
2023/01/16 04:03:52;;;;;;;9.60;5.57;;;;;;;3.16;100.00;99223.56;5018431;28;20224;-47
2023/01/16 04:06:46;;;;;;;12.30;5.88;;;;;;;3.21;100.00;99224.25;5017255;28;20213;-48
2023/01/16 04:09:28;;;;;;;7.50;4.88;;;;;;;3.22;100.00;99225.16;5017325;28;20798;-48
2023/01/16 04:11:56;;;;;;;7.65;5.32;;;;;;;3.23;100.00;99222.44;5019840;28;20266;-47
2023/01/16 04:14:24;;;;;;;8.05;4.80;;;;;;;3.29;100.00;99210.78;5020210;28;20632;-48
2023/01/16 04:16:51;;;;;;;6.47;4.57;;;;;;;3.36;100.00;99207.00;5021139;28;20698;-46
2023/01/16 04:19:18;;;;;;;9.60;4.93;;;;;;;3.40;100.00;99202.47;5019481;28;20172;-46
2023/01/16 04:21:46;;;;;;;8.75;4.57;;;;;;;3.34;100.00;99202.69;5024232;28;20176;-46
2023/01/16 04:24:11;;;;;;;7.15;4.20;;;;;;;3.34;100.00;99195.59;5015054;28;20184;-46
2023/01/16 04:26:37;;;;;;;7.95;4.72;;;;;;;3.37;100.00;99199.91;5019264;28;20262;-48
2023/01/16 04:29:03;;;;;;;4.90;4.13;;;;;;;3.38;100.00;99196.34;5023393;28;20219;-47
2023/01/16 04:31:28;;;;;;;10.93;4.70;;;;;;;3.38;100.00;99186.63;5017649;28;20215;-47
2023/01/16 04:33:54;;;;;;;9.18;4.20;;;;;;;3.38;100.00;99199.00;5013489;28;20179;-47
2023/01/16 04:36:21;;;;;;;7.57;3.80;;;;;;;3.39;100.00;99198.97;5020882;28;20538;-47
2023/01/16 04:38:46;;;;;;;4.95;3.92;;;;;;;3.37;100.00;99192.84;5019351;28;20247;-47
2023/01/16 04:41:12;;;;;;;5.75;3.40;;;;;;;3.40;100.00;99176.00;5015347;28;20260;-47
2023/01/16 04:43:38;;;;;;;5.10;3.45;;;;;;;3.42;100.00;99171.50;5024068;28;20177;-48
2023/01/16 04:46:03;;;;;;;6.82;3.40;;;;;;;3.41;100.00;99180.34;5019238;28;20251;-48
2023/01/16 04:48:29;;;;;;;8.15;4.32;;;;;;;3.34;100.00;99169.13;5016726;28;20856;-48
2023/01/16 04:50:54;;;;;;;9.98;3.72;;;;;;;3.34;100.00;99163.81;5020512;28;20195;-48
2023/01/16 04:53:20;;;;;;;7.93;3.63;;;;;;;3.32;100.00;99162.16;5019751;28;20181;-46
2023/01/16 04:55:45;;;;;;;9.07;3.60;;;;;;;3.27;100.00;99165.81;5019164;28;20212;-47
2023/01/16 04:58:11;;;;;;;6.65;3.22;;;;;;;3.32;100.00;99170.09;5020121;28;20184;-49
2023/01/16 05:00:36;;;;;;;6.97;3.58;;;;;;;3.28;100.00;99162.28;5021852;28;20198;-48
2023/01/16 05:03:01;;;;;;;4.90;3.30;;;;;;;3.29;100.00;99148.13;5017331;28;20665;-47
2023/01/16 05:05:27;;;;;;;6.25;3.72;;;;;;;3.29;100.00;99153.41;5009419;28;20270;-48
2023/01/16 05:10:37;;;;;;;8.60;3.58;;;;;;;3.26;100.00;99150.88;5020360;28;20583;-47
2023/01/16 05:13:03;;;;;;;4.03;3.13;;;;;;;3.26;100.00;99137.66;5020715;28;20189;-46
2023/01/16 05:15:28;;;;;;;5.70;3.20;;;;;;;3.25;100.00;99135.91;5021956;28;20213;-47
2023/01/16 05:17:54;;;;;;;7.13;3.00;;;;;;;3.18;100.00;99138.84;5022576;28;20188;-48
2023/01/16 05:20:20;;;;;;;5.85;3.70;;;;;;;3.10;100.00;99133.81;5022387;28;20177;-47
2023/01/16 05:22:47;;;;;;;7.72;3.10;;;;;;;3.08;100.00;99122.41;5022889;28;20185;-48
2023/01/16 05:25:13;;;;;;;6.80;2.90;;;;;;;3.04;100.00;99136.66;5022015;28;20638;-47
2023/01/16 05:27:38;;;;;;;6.18;2.90;;;;;;;2.99;100.00;99128.03;5024991;28;20192;-48
2023/01/16 05:30:04;;;;;;;5.82;3.38;;;;;;;3.03;100.00;99125.22;5023425;28;20196;-48
2023/01/16 05:32:30;;;;;;;4.95;3.25;;;;;;;2.94;100.00;99140.56;5020465;28;20181;-48
2023/01/16 05:34:56;;;;;;;9.00;3.63;;;;;;;2.92;100.00;99131.81;5021310;28;20209;-47
2023/01/16 05:37:21;;;;;;;4.35;3.47;;;;;;;2.79;100.00;99137.50;5025355;28;20180;-46
2023/01/16 05:39:46;;;;;;;6.75;3.63;;;;;;;2.77;100.00;99131.41;5018041;28;20180;-47
2023/01/16 05:42:20;;;;;;;8.25;3.40;;;;;;;2.77;100.00;99134.03;5021590;28;20218;-47
2023/01/16 05:44:50;;;;;;;6.07;3.65;;;;;;;2.67;100.00;99141.44;5019388;28;20191;-48
2023/01/16 05:47:16;;;;;;;6.72;3.75;;;;;;;2.66;100.00;99134.41;5022588;28;20189;-47
2023/01/16 05:49:41;;;;;;;7.63;3.45;;;;;;;2.63;100.00;99131.00;5026232;28;20730;-48
2023/01/16 05:52:07;;;;;;;9.23;3.72;;;;;;;2.58;100.00;99130.28;5018451;28;20204;-47
2023/01/16 05:54:32;;;;;;;9.90;4.05;;;;;;;2.60;100.00;99137.28;5026815;28;20191;-47
2023/01/16 05:56:58;;;;;;;7.97;3.58;;;;;;;2.62;100.00;99129.28;5023678;28;20275;-46
2023/01/16 05:59:23;;;;;;;5.25;3.50;;;;;;;2.60;100.00;99128.44;5018359;28;20235;-47
2023/01/16 06:01:49;;;;;;;7.10;3.85;;;;;;;2.63;100.00;99131.88;5021918;28;20223;-47
2023/01/16 06:04:15;;;;;;;6.28;3.78;;;;;;;2.64;100.00;99116.88;5018566;28;20572;-47
2023/01/16 06:06:40;;;;;;;7.70;4.20;;;;;;;2.65;100.00;99124.75;5017272;28;20192;-47
2023/01/16 06:09:06;;;;;;;6.90;3.78;;;;;;;2.64;100.00;99116.88;5015550;28;20185;-47
2023/01/16 06:11:31;;;;;;;10.02;4.57;;;;;;;2.69;100.00;99112.31;5021596;28;20275;-47
2023/01/16 06:14:03;;;;;;;6.72;3.95;;;;;;;2.66;100.00;99113.25;5015140;28;20183;-48
2023/01/16 06:16:29;;;;;;;7.90;4.18;;;;;;;2.71;100.00;99107.81;5023588;28;20210;-47
2023/01/16 06:18:54;;;;;;;7.50;4.60;;;;;;;2.73;100.00;99102.47;5020382;28;20168;-47
2023/01/16 06:21:20;;;;;;;6.38;3.97;;;;;;;2.75;100.00;99096.22;5017917;28;20188;-48
2023/01/16 06:23:45;;;;;;;8.40;4.60;;;;;;;2.74;100.00;99094.50;5019458;28;20556;-46
2023/01/16 06:26:11;;;;;;;5.32;4.10;;;;;;;2.75;100.00;99108.56;5017581;28;20208;-46
2023/01/16 06:28:37;;;;;;;7.15;4.20;;;;;;;2.77;100.00;99097.03;5018798;28;20199;-48
2023/01/16 06:31:03;;;;;;;6.53;4.03;;;;;;;2.79;100.00;99100.47;5017949;28;20235;-48
2023/01/16 06:33:29;;;;;;;6.72;4.18;;;;;;;2.80;100.00;99094.28;5017787;28;20195;-46
2023/01/16 06:35:55;;;;;;;7.28;3.72;;;;;;;2.90;100.00;99094.81;5014609;28;20221;-48
2023/01/16 06:38:20;;;;;;;9.60;3.92;;;;;;;2.88;100.00;99099.28;5018946;28;20184;-47
2023/01/16 06:40:46;;;;;;;5.00;3.58;;;;;;;2.89;100.00;99096.59;5016927;28;20652;-47
2023/01/16 06:43:12;;;;;;;6.55;3.35;;;;;;;2.87;100.00;99092.28;5012974;28;20176;-49
2023/01/16 06:45:37;;;;;;;13.50;4.22;;;;;;;2.86;100.00;99088.78;5017798;28;20705;-47
2023/01/16 06:48:03;;;;;;;9.40;3.53;;;;;;;2.89;100.00;99086.03;5019987;28;20184;-47
2023/01/16 06:50:28;;;;;;;6.68;3.63;;;;;;;2.88;100.00;99072.84;5017084;28;20208;-47
2023/01/16 06:52:54;;;;;;;7.63;3.17;;;;;;;2.90;100.00;99068.38;5016762;28;20175;-46
2023/01/16 06:55:19;;;;;;;4.75;3.50;;;;;;;2.91;100.00;99079.81;5024188;28;20734;-47
2023/01/16 06:57:45;;;;;;;5.85;3.13;;;;;;;2.94;100.00;99071.78;5021926;28;20188;-49
2023/01/16 07:00:12;;;;;;;4.85;3.40;;;;;;;2.96;100.00;99065.50;5015003;28;20185;-48
2023/01/16 07:02:40;;;;;;;8.32;3.28;;;;;;;2.95;100.00;99071.72;5024591;28;20204;-47
2023/01/16 07:05:10;;;;;;;5.32;2.83;;;;;;;2.97;100.00;99061.06;5008820;28;20243;-48
2023/01/16 07:07:36;;;;;;;5.43;3.28;;;;;;;2.98;100.00;99065.47;5015116;28;20200;-47
2023/01/16 07:10:02;;;;;;;5.60;2.95;;;;;;;2.98;100.00;99057.53;5020117;28;20284;-47
2023/01/16 07:12:28;;;;;;;5.43;2.97;;;;;;;2.98;100.00;99071.63;5019302;28;20245;-46
2023/01/16 07:23:23;;;;;;;7.78;2.40;;;;;;;3.06;100.00;99068.69;5016674;28;20647;-48
2023/01/16 07:25:50;;;;;;;5.00;2.50;;;;;;;3.01;100.00;99050.31;5015951;28;20257;-46
2023/01/16 07:28:17;;;;;;;7.03;2.45;;;;;;;3.04;100.00;99067.88;5024730;28;20648;-47
2023/01/16 07:30:44;;;;;;;6.22;2.33;;;;;;;3.07;100.00;99062.47;5017359;28;20681;-46
2023/01/16 07:33:10;;;;;;;4.85;2.33;;;;;;;3.06;100.00;99050.16;5015308;28;20183;-46
2023/01/16 07:35:36;;;;;;;6.47;2.17;;;;;;;3.04;100.00;99050.22;5025603;28;20208;-47
2023/01/16 07:38:02;;;;;;;4.20;2.13;;;;;;;3.04;100.00;99052.88;5018725;28;20180;-46
2023/01/16 07:40:28;;;;;;;9.05;2.50;;;;;;;3.07;100.00;99038.66;5017308;28;20183;-49
2023/01/16 07:42:53;;;;;;;5.97;1.73;;;;;;;3.07;100.00;99042.19;5020771;28;20584;-46
2023/01/16 07:45:20;;;;;;;3.78;2.20;;;;;;;3.11;100.00;99044.72;5017179;28;20208;-46
2023/01/16 07:47:46;;;;;;;7.53;2.08;;;;;;;3.09;100.00;99031.53;5013212;28;20176;-48
2023/01/16 07:50:11;;;;;;;6.28;2.25;;;;;;;3.10;100.00;99030.59;5017117;28;20204;-47
2023/01/16 07:52:37;;;;;;;4.38;1.95;;;;;;;3.08;100.00;99029.81;5019934;28;20206;-46
2023/01/16 07:55:03;;;;;;;6.10;1.58;;;;;;;3.11;100.00;99029.72;5010738;28;20303;-47
2023/01/16 07:57:28;;;;;;;5.47;1.80;;;;;;;3.14;100.00;99029.59;5023101;28;20222;-49
2023/01/16 07:59:55;;;;;;;6.38;1.88;;;;;;;3.14;100.00;99026.94;5015904;28;20223;-47
2023/01/16 08:02:20;;;;;;;4.75;1.50;;;;;;;3.15;100.00;99011.91;5016025;28;20168;-46
2023/01/16 08:04:46;;;;;;;4.25;1.60;;;;;;;3.19;100.00;99002.94;5020893;28;20211;-47
2023/01/16 08:07:12;;;;;;;5.80;1.70;;;;;;;3.15;100.00;99003.97;5025948;28;20184;-47
2023/01/16 08:09:37;;;;;;;4.47;1.38;;;;;;;3.18;100.00;99006.53;5020046;28;20643;-48
2023/01/16 08:12:03;;;;;;;6.15;2.33;;;;;;;3.20;100.00;99005.53;5018927;28;20685;-47
2023/01/16 08:14:29;;;;;;;5.53;1.52;;;;;;;3.22;100.00;99009.00;5021686;28;20660;-47
2023/01/16 08:16:54;;;;;;;5.78;1.58;;;;;;;3.24;100.00;98996.56;5015747;28;20265;-47
2023/01/16 08:19:20;;;;;;;4.30;1.30;;;;;;;3.23;100.00;99001.91;5017689;28;20176;-48
2023/01/16 08:21:45;;;;;;;7.15;1.50;;;;;;;3.23;100.00;98989.53;5020704;28;20699;-49
2023/01/16 08:24:13;;;;;;;7.83;1.70;;;;;;;3.23;100.00;98984.25;5021122;28;20835;-49
2023/01/16 08:26:39;;;;;;;3.40;1.42;;;;;;;3.24;100.00;98991.28;5023229;28;20286;-47
2023/01/16 08:29:05;;;;;;;4.72;1.55;;;;;;;3.23;100.00;98986.88;5022435;28;20267;-47
2023/01/16 08:31:31;;;;;;;6.53;1.45;;;;;;;3.24;100.00;98988.63;5026966;28;20932;-47
2023/01/16 08:33:57;;;;;;;4.53;1.27;;;;;;;3.25;100.00;98997.44;5016054;28;20656;-46
2023/01/16 08:36:22;;;;;;;4.53;1.50;;;;;;;3.24;100.00;98991.28;5025705;28;20223;-46
2023/01/16 08:38:49;;;;;;;5.88;1.30;;;;;;;3.24;100.00;98985.13;5021723;28;20192;-50
2023/01/16 08:52:27;;;;;;;3.45;1.27;;;;;;;3.14;100.00;98950.19;5018526;28;20259;-47
2023/01/16 08:54:52;;;;;;;4.35;1.08;;;;;;;3.19;100.00;98952.66;5022786;28;20199;-44
2023/01/16 08:57:18;;;;;;;3.42;1.23;;;;;;;3.29;100.00;98948.75;5025685;28;20559;-46
2023/01/16 08:59:43;;;;;;;3.25;1.08;;;;;;;3.40;100.00;98933.31;5022221;28;20180;-47
2023/01/16 09:02:10;;;;;;;3.00;1.30;;;;;;;3.58;100.00;98938.78;5028016;28;20259;-47
2023/01/16 09:04:36;;;;;;;2.22;1.30;;;;;;;3.59;100.00;98928.16;5022111;28;20673;-46
2023/01/16 09:07:02;;;;;;;4.35;1.08;;;;;;;3.68;100.00;98932.22;5019587;28;20180;-45
2023/01/16 09:09:29;;;;;;;5.72;1.63;;;;;;;3.68;100.00;98924.28;5020953;28;20195;-49
2023/01/16 09:14:40;;;;;;;4.18;1.17;;;;;;;3.68;100.00;98913.69;5017501;28;20176;-47
2023/01/16 09:17:07;;;;;;;2.72;1.17;;;;;;;3.67;100.00;98920.78;5023065;28;20181;-47
2023/01/16 09:19:33;;;;;;;4.60;1.27;;;;;;;3.65;100.00;98916.44;5017342;28;20196;-46
2023/01/16 09:21:59;;;;;;;3.13;1.20;;;;;;;3.69;100.00;98910.09;5021380;28;20188;-46
2023/01/16 09:24:25;;;;;;;3.38;1.13;;;;;;;3.57;100.00;98924.69;5016903;28;20254;-46
2023/01/16 09:26:50;;;;;;;2.65;1.00;;;;;;;3.61;100.00;98910.41;5017777;28;20200;-45
2023/01/16 09:29:16;;;;;;;4.22;1.10;;;;;;;3.62;100.00;98917.41;5025665;28;20275;-45
2023/01/16 09:31:41;;;;;;;4.43;1.08;;;;;;;3.59;100.00;98914.06;5019749;28;20193;-46
2023/01/16 09:34:07;;;;;;;5.28;1.25;;;;;;;3.57;100.00;98895.56;5016751;28;20184;-49
2023/01/16 09:36:33;;;;;;;2.60;1.30;;;;;;;3.59;100.00;98899.03;5020155;28;20211;-47
2023/01/16 09:38:58;;;;;;;1.40;1.10;;;;;;;3.57;100.00;98886.78;5018962;28;20192;-46
2023/01/16 09:44:13;;;;;;;7.10;1.23;;;;;;;3.45;100.00;98886.31;5022399;28;20678;-47
2023/01/16 09:46:44;;;;;;;3.25;1.25;;;;;;;3.41;100.00;98890.06;5023409;28;20257;-47
2023/01/16 09:49:31;;;;;;;3.38;1.20;;;;;;;3.44;100.00;98891.72;5020341;28;20181;-48
2023/01/16 10:00:34;;;;;;;3.65;1.17;;;;;;;3.47;100.00;98850.06;5014548;28;20205;-47
2023/01/16 10:03:00;;;;;;;2.30;1.15;;;;;;;3.54;100.00;98855.97;5019511;28;20181;-47
2023/01/16 10:05:49;;;;;;;3.72;1.40;;;;;;;3.62;100.00;98848.56;5017780;28;20258;-46
2023/01/16 10:08:22;;;;;;;2.90;1.30;;;;;;;3.71;100.00;98850.84;5025597;28;20600;-45
2023/01/16 10:11:21;;;;;;;2.78;1.55;;;;;;;3.78;100.00;98839.97;5025529;28;20215;-46
2023/01/16 10:14:11;;;;;;;4.25;1.27;;;;;;;3.85;100.00;98838.81;5021366;28;20184;-45
2023/01/16 10:16:39;;;;;;;6.75;1.58;;;;;;;3.87;100.00;98821.94;5024477;28;20283;-46
2023/01/16 10:19:33;;;;;;;3.83;1.00;;;;;;;3.93;100.00;98826.06;5016800;28;20181;-44
2023/01/16 10:22:13;;;;;;;2.90;1.20;;;;;;;3.98;100.00;98813.50;5024646;28;20185;-44
2023/01/16 10:24:39;;;;;;;3.60;1.27;;;;;;;4.02;100.00;98799.19;5018360;28;20686;-44
2023/01/16 10:27:16;;;;;;;3.03;1.00;;;;;;;3.97;100.00;98793.22;5018788;28;20259;-45
2023/01/16 10:29:53;;;;;;;2.88;1.58;;;;;;;3.97;100.00;98795.88;5018222;28;20184;-44
2023/01/16 10:32:32;;;;;;;5.50;1.48;;;;;;;3.94;100.00;98790.72;5016118;28;20203;-45
2023/01/16 10:35:03;;;;;;;4.57;1.38;;;;;;;4.08;100.00;98783.00;5024331;28;20211;-46
2023/01/16 10:37:29;;;;;;;3.78;1.15;;;;;;;4.04;100.00;98775.28;5023173;28;20190;-46
2023/01/16 10:39:56;;;;;;;4.75;1.30;;;;;;;4.02;100.00;98780.63;5020006;28;20184;-45
2023/01/16 10:50:57;;;;;;;4.47;1.50;;;;;;;4.16;100.00;98748.22;5019393;28;20253;-46
2023/01/16 10:53:23;;;;;;;3.88;1.42;;;;;;;4.15;100.00;98764.19;5014727;28;20218;-46
2023/01/16 10:55:52;;;;;;;4.30;0.90;;;;;;;4.10;100.00;98759.94;5026007;28;20215;-45
2023/01/16 10:58:17;;;;;;;3.20;1.20;;;;;;;4.09;100.00;98760.91;5024637;28;20184;-46
2023/01/16 11:00:44;;;;;;;4.30;1.40;;;;;;;4.07;100.00;98748.66;5015795;28;20180;-49
2023/01/16 11:03:31;;;;;;;3.10;1.08;;;;;;;4.05;100.00;98759.31;5017423;28;20215;-46
2023/01/16 11:06:08;;;;;;;2.42;1.02;;;;;;;4.04;100.00;98752.28;5017674;28;20228;-48
2023/01/16 11:08:35;;;;;;;2.13;0.95;;;;;;;4.01;100.00;98747.13;5021818;28;20192;-49
2023/01/16 11:11:00;;;;;;;3.45;1.45;;;;;;;4.02;100.00;98740.88;5017293;28;20239;-47
2023/01/16 11:19:14;;;;;;;3.15;1.40;;;;;;;4.00;100.00;98713.63;5020465;28;20184;-47
2023/01/16 11:21:43;;;;;;;2.67;1.08;;;;;;;4.01;100.00;98719.78;5016025;28;20294;-48
2023/01/16 11:24:21;;;;;;;3.88;2.83;;;;;;;4.01;100.00;98703.88;5017228;28;20181;-46
2023/01/16 11:26:53;;;;;;;1.70;1.30;;;;;;;3.98;100.00;98699.59;5020739;28;20569;-46
2023/01/16 11:29:23;;;;;;;5.65;1.38;;;;;;;4.05;100.00;98687.75;5018822;28;20184;-46
2023/01/16 11:31:54;;;;;;;1.67;0.82;;;;;;;4.05;100.00;98679.81;5015833;28;20311;-47
2023/01/16 11:34:25;;;;;;;5.40;1.17;;;;;;;4.10;100.00;98677.81;5012969;28;20183;-45
2023/01/16 11:36:54;;;;;;;1.65;1.00;;;;;;;4.13;100.00;98685.63;5019794;28;20684;-47
2023/01/16 11:39:23;;;;;;;3.15;1.00;;;;;;;4.13;100.00;98675.03;5015010;28;20172;-46
2023/01/16 11:41:52;;;;;;;1.77;1.00;;;;;;;4.14;100.00;98662.63;5017406;28;20547;-46
2023/01/16 11:47:05;;;;;;;3.08;0.93;;;;;;;4.16;100.00;98644.88;5017694;28;20180;-46
2023/01/16 11:49:39;;;;;;;5.07;1.00;;;;;;;4.14;100.00;98628.19;5023526;28;20207;-44
2023/01/16 11:52:05;;;;;;;2.58;1.02;;;;;;;4.10;100.00;98624.81;5020449;28;20187;-45
2023/01/16 11:54:33;;;;;;;2.67;1.05;;;;;;;4.16;100.00;98614.88;5015923;28;20187;-45
2023/01/16 11:57:21;;;;;;;3.42;1.40;;;;;;;4.22;100.00;98606.59;5028881;28;20204;-47
2023/01/16 11:59:53;;;;;;;2.85;1.33;;;;;;;4.22;100.00;98609.25;5022812;28;20640;-47
2023/01/16 12:02:49;;;;;;;4.28;1.13;;;;;;;4.15;100.00;98605.19;5028546;28;20657;-46
2023/01/16 12:05:56;;;;;;;2.97;0.73;;;;;;;4.14;100.00;98583.13;5021903;28;20702;-46
2023/01/16 12:08:46;;;;;;;2.75;0.93;;;;;;;4.11;100.00;98591.22;5027745;28;20177;-46
2023/01/16 12:11:21;;;;;;;3.78;1.00;;;;;;;4.15;100.00;98583.97;5037992;28;20254;-46
2023/01/16 12:14:20;;;;;;;1.40;1.13;;;;;;;4.19;100.00;98561.69;5024129;28;20610;-42
2023/01/16 12:17:03;;;;;;;1.65;0.90;;;;;;;4.24;100.00;98573.81;5026502;28;20204;-48
2023/01/16 12:19:59;;;;;;;3.88;0.90;;;;;;;4.30;100.00;98556.72;5020618;28;20643;-49
2023/01/16 12:22:37;;;;;;;2.75;1.30;;;;;;;4.19;100.00;98545.81;5023540;28;20188;-47
2023/01/16 12:25:28;;;;;;;2.33;0.82;;;;;;;4.22;100.00;98548.28;5023339;28;20203;-50
2023/01/16 12:28:18;;;;;;;3.95;1.15;;;;;;;4.28;100.00;98532.09;4999130;28;20211;-48
2023/01/16 12:31:34;;;;;;;2.15;1.20;;;;;;;4.25;100.00;98521.66;5020833;28;20201;-49
2023/01/16 12:34:28;;;;;;;6.97;0.90;;;;;;;4.30;100.00;98515.16;5024535;28;20607;-48
2023/01/16 12:37:00;;;;;;;4.60;1.08;;;;;;;4.24;100.00;98490.75;5027786;28;20194;-50
2023/01/16 12:39:42;;;;;;;4.25;1.35;;;;;;;4.27;100.00;98485.31;5019755;28;20181;-47
2023/01/16 12:45:28;;;;;;;2.25;1.10;;;;;;;4.31;100.00;98463.88;5021187;28;20574;-48